createdAt,value
2024-01-20T00:16:09.037Z,1007.85
2024-01-20T02:48:07.284Z,1008.94
2024-01-20T03:24:06.785Z,1009.19
2024-01-20T03:49:06.695Z,1009.27
2024-01-20T03:51:06.425Z,1009.35
2024-01-20T04:15:06.154Z,1009.41
2024-01-20T04:17:06.119Z,1009.45
2024-01-20T05:05:05.606Z,1009.79
2024-01-20T06:13:04.744Z,1010.36
2024-01-20T07:10:04.027Z,1010.83
2024-01-20T08:10:03.302Z,1011.38
2024-01-20T10:53:01.255Z,1011.42
2024-01-20T10:57:01.230Z,1011.35
2024-01-20T11:03:01.232Z,1011.52
2024-01-20T11:04:01.182Z,1011.41
2024-01-20T11:07:01.116Z,1011.44
2024-01-20T11:08:01.077Z,1011.48
2024-01-20T11:09:01.108Z,1011.44
2024-01-20T11:10:01.056Z,1011.46
2024-01-20T11:11:01.040Z,1011.48
2024-01-20T11:12:01.140Z,1011.49
2024-01-20T11:13:01.017Z,1011.51
2024-01-20T11:14:01.021Z,1011.47
2024-01-20T11:15:01.068Z,1011.50
2024-01-20T11:16:00.982Z,1011.39
2024-01-20T11:17:00.969Z,1011.43
2024-01-20T11:18:02.392Z,1011.41
2024-01-20T11:19:00.996Z,1011.33
2024-01-20T11:20:00.937Z,1011.37
2024-01-20T11:21:01.005Z,1011.41
2024-01-20T11:22:00.918Z,1011.35
2024-01-20T11:23:00.911Z,1011.37
2024-01-20T11:24:01.066Z,1011.39
2024-01-20T11:25:00.871Z,1011.29
2024-01-20T11:26:00.851Z,1011.31
2024-01-20T11:27:00.862Z,1011.28
2024-01-20T11:28:00.866Z,1011.25
2024-01-20T11:29:00.834Z,1011.23
2024-01-20T11:30:00.833Z,1011.33
2024-01-20T11:31:00.796Z,1011.36
2024-01-20T11:32:00.780Z,1011.27
2024-01-20T11:33:00.900Z,1011.30
2024-01-20T11:34:00.872Z,1011.31
2024-01-20T11:35:00.752Z,1011.38
2024-01-20T11:36:00.784Z,1011.44
2024-01-20T11:37:00.731Z,1011.32
2024-01-20T11:38:00.720Z,1011.31
2024-01-20T11:40:00.690Z,1011.40
2024-01-20T11:41:00.782Z,1011.32
2024-01-20T11:43:00.633Z,1011.30
2024-01-20T11:44:00.658Z,1011.32
2024-01-20T11:45:00.669Z,1011.27
2024-01-20T11:46:00.602Z,1011.31
2024-01-20T11:47:00.675Z,1011.25
2024-01-20T11:48:00.757Z,1011.24
2024-01-20T11:49:00.738Z,1011.27
2024-01-20T11:50:00.685Z,1011.30
2024-01-20T11:51:00.567Z,1011.26
2024-01-20T11:52:00.529Z,1011.21
2024-01-20T11:53:00.537Z,1011.21
2024-01-20T11:54:00.531Z,1011.27
2024-01-20T12:04:00.373Z,1011.03
2024-01-20T12:05:04.665Z,1011.07
2024-01-20T12:06:02.439Z,1010.98
2024-01-20T12:41:59.893Z,1010.86
2024-01-20T12:42:59.865Z,1010.88
2024-01-20T12:43:59.849Z,1010.81
2024-01-20T12:44:59.898Z,1010.81
2024-01-20T12:45:59.818Z,1010.76
2024-01-20T12:46:59.805Z,1010.71
2024-01-20T12:47:59.992Z,1010.73
2024-01-20T12:48:59.839Z,1010.74
2024-01-20T12:49:59.783Z,1010.71
2024-01-20T12:50:59.781Z,1010.65
2024-01-20T13:02:59.619Z,1010.56
2024-01-20T13:03:59.597Z,1010.55
2024-01-20T13:04:59.619Z,1010.54
2024-01-20T13:05:59.682Z,1010.52
2024-01-20T13:06:59.609Z,1010.52
2024-01-20T13:07:59.520Z,1010.60
2024-01-20T13:08:59.562Z,1010.53
2024-01-20T13:09:59.509Z,1010.57
2024-01-20T13:10:59.496Z,1010.50
2024-01-20T13:11:59.516Z,1010.51
2024-01-20T13:12:59.460Z,1010.43
2024-01-20T13:13:59.525Z,1010.41
2024-01-20T13:14:59.526Z,1010.42
2024-01-20T13:15:59.593Z,1010.37
2024-01-20T13:16:59.427Z,1010.38
2024-01-20T13:17:59.458Z,1010.43
2024-01-20T13:18:59.503Z,1010.46
2024-01-20T13:19:59.491Z,1010.49
2024-01-20T13:20:59.412Z,1010.51
2024-01-20T13:21:59.340Z,1010.50
2024-01-20T13:22:59.328Z,1010.48
2024-01-20T13:23:59.446Z,1010.53
2024-01-20T13:24:59.304Z,1010.49
2024-01-20T13:25:59.290Z,1010.57
2024-01-20T13:26:59.302Z,1010.58
2024-01-20T13:27:59.267Z,1010.59
2024-01-20T13:28:59.256Z,1010.59
2024-01-20T13:29:59.256Z,1010.62
2024-01-20T13:30:59.310Z,1010.62
2024-01-20T13:31:59.222Z,1010.64
2024-01-20T13:32:59.334Z,1010.68
2024-01-20T13:33:59.266Z,1010.64
2024-01-20T13:34:59.299Z,1010.63
2024-01-20T13:35:59.234Z,1010.58
2024-01-20T13:36:59.156Z,1010.58
2024-01-20T13:37:59.145Z,1010.72
2024-01-20T13:38:59.156Z,1010.66
2024-01-20T13:39:59.113Z,1010.66
2024-01-20T13:40:59.101Z,1010.72
2024-01-20T13:41:59.142Z,1010.69
2024-01-20T13:42:59.081Z,1010.76
2024-01-20T14:03:59.020Z,1010.75
2024-01-20T17:09:56.537Z,1011.29
2024-01-20T17:12:56.487Z,1011.34
2024-01-20T17:49:56.033Z,1011.23
2024-01-20T22:32:52.718Z,1010.29
2024-01-20T22:54:52.354Z,1010.00
